Valle de Ensueno, Puerto Rico
Current Conditions -  °F | °C
As of 4:56 AM on Saturday 29 Nov 2014 (Local Time) from TJSJ Reporting Station
Overcast Overcast  
Wind Chill: 24°   Ceiling: 6000
Heat Index: 24°   Visibility: 10mi
Dew Point: 22°   Wind: 3mph
Humidity: 90%   Direction: 100°E
Pressure: 29.93"   Gusts: NA
Location:  18.2551°N, 65.9776°W
Report Text: TJSJ 290856Z 10003KT 10SM SCT032 OVC060 24/22 A2993 RMK AO2 RAB11E24 SLP134 P0002 60002 T02390222 55002
Loading
Personal Weather Stations






























Interactive Weather Map New forecast layout! Learn more

10-Day Weather Forecast

Advertisements
Track Severe Weather on mobile